sensor_id;sensor_type;location;lat;lon;timestamp;P1;durP1;ratioP1;P2;durP2;ratioP2
61112;SDS011;47184;57.998;56.184;2023-04-21T00:00:52;3.40;;;1.27;;
61112;SDS011;47184;57.998;56.184;2023-04-21T00:03:19;1.48;;;0.75;;
61112;SDS011;47184;57.998;56.184;2023-04-21T00:05:49;8.18;;;1.60;;
61112;SDS011;47184;57.998;56.184;2023-04-21T00:08:15;2.03;;;1.00;;
61112;SDS011;47184;57.998;56.184;2023-04-21T00:10:42;8.38;;;1.55;;
61112;SDS011;47184;57.998;56.184;2023-04-21T00:13:08;3.30;;;1.20;;
61112;SDS011;47184;57.998;56.184;2023-04-21T00:15:35;1.90;;;1.17;;
61112;SDS011;47184;57.998;56.184;2023-04-21T00:18:01;1.15;;;0.60;;
61112;SDS011;47184;57.998;56.184;2023-04-21T00:20:28;4.18;;;1.73;;
61112;SDS011;47184;57.998;56.184;2023-04-21T00:22:55;1.52;;;0.82;;
61112;SDS011;47184;57.998;56.184;2023-04-21T00:25:22;1.83;;;1.00;;
61112;SDS011;47184;57.998;56.184;2023-04-21T00:27:49;2.25;;;1.13;;
61112;SDS011;47184;57.998;56.184;2023-04-21T00:30:15;3.38;;;0.90;;
61112;SDS011;47184;57.998;56.184;2023-04-21T00:32:42;8.75;;;0.88;;
61112;SDS011;47184;57.998;56.184;2023-04-21T00:35:08;1.63;;;0.88;;
61112;SDS011;47184;57.998;56.184;2023-04-21T00:37:35;4.57;;;1.50;;
61112;SDS011;47184;57.998;56.184;2023-04-21T00:40:02;2.70;;;1.25;;
61112;SDS011;47184;57.998;56.184;2023-04-21T00:42:31;2.67;;;1.35;;
61112;SDS011;47184;57.998;56.184;2023-04-21T00:44:57;4.82;;;2.00;;
61112;SDS011;47184;57.998;56.184;2023-04-21T00:47:24;2.30;;;1.08;;
61112;SDS011;47184;57.998;56.184;2023-04-21T00:49:50;4.68;;;1.95;;
61112;SDS011;47184;57.998;56.184;2023-04-21T00:52:16;16.83;;;2.85;;
61112;SDS011;47184;57.998;56.184;2023-04-21T00:54:43;4.32;;;1.80;;
61112;SDS011;47184;57.998;56.184;2023-04-21T00:57:10;5.65;;;2.63;;
61112;SDS011;47184;57.998;56.184;2023-04-21T00:59:37;5.30;;;2.60;;
61112;SDS011;47184;57.998;56.184;2023-04-21T01:02:03;10.13;;;2.60;;
61112;SDS011;47184;57.998;56.184;2023-04-21T01:04:29;50.65;;;4.13;;
61112;SDS011;47184;57.998;56.184;2023-04-21T01:07:03;10.52;;;3.20;;
61112;SDS011;47184;57.998;56.184;2023-04-21T01:09:30;21.38;;;3.28;;
61112;SDS011;47184;57.998;56.184;2023-04-21T01:12:01;12.73;;;3.05;;
61112;SDS011;47184;57.998;56.184;2023-04-21T01:14:34;14.95;;;3.60;;
61112;SDS011;47184;57.998;56.184;2023-04-21T01:17:05;26.23;;;4.60;;
61112;SDS011;47184;57.998;56.184;2023-04-21T01:19:34;27.48;;;5.85;;
61112;SDS011;47184;57.998;56.184;2023-04-21T01:22:06;35.92;;;6.45;;
61112;SDS011;47184;57.998;56.184;2023-04-21T01:24:44;25.60;;;5.70;;
61112;SDS011;47184;57.998;56.184;2023-04-21T01:27:17;32.90;;;6.25;;
61112;SDS011;47184;57.998;56.184;2023-04-21T01:32:16;27.55;;;6.68;;
61112;SDS011;47184;57.998;56.184;2023-04-21T01:34:45;36.03;;;6.28;;
61112;SDS011;47184;57.998;56.184;2023-04-21T01:37:12;51.60;;;7.25;;
61112;SDS011;47184;57.998;56.184;2023-04-21T01:39:40;66.88;;;9.38;;
61112;SDS011;47184;57.998;56.184;2023-04-21T01:42:08;53.97;;;8.75;;
61112;SDS011;47184;57.998;56.184;2023-04-21T01:44:35;57.13;;;8.80;;
61112;SDS011;47184;57.998;56.184;2023-04-21T01:47:01;55.92;;;8.38;;
61112;SDS011;47184;57.998;56.184;2023-04-21T01:49:28;48.00;;;7.90;;
61112;SDS011;47184;57.998;56.184;2023-04-21T01:51:54;27.23;;;6.60;;
61112;SDS011;47184;57.998;56.184;2023-04-21T01:54:20;9.75;;;3.28;;
61112;SDS011;47184;57.998;56.184;2023-04-21T01:56:46;12.52;;;3.05;;
61112;SDS011;47184;57.998;56.184;2023-04-21T01:59:12;6.70;;;2.53;;
61112;SDS011;47184;57.998;56.184;2023-04-21T02:01:38;6.78;;;2.70;;
61112;SDS011;47184;57.998;56.184;2023-04-21T02:04:04;11.05;;;3.75;;
61112;SDS011;47184;57.998;56.184;2023-04-21T02:06:30;14.60;;;3.42;;
61112;SDS011;47184;57.998;56.184;2023-04-21T02:08:57;14.23;;;3.20;;
61112;SDS011;47184;57.998;56.184;2023-04-21T02:11:27;11.63;;;2.58;;
61112;SDS011;47184;57.998;56.184;2023-04-21T02:13:56;10.38;;;3.22;;
61112;SDS011;47184;57.998;56.184;2023-04-21T02:16:23;9.73;;;2.80;;
61112;SDS011;47184;57.998;56.184;2023-04-21T02:18:52;5.60;;;1.88;;
61112;SDS011;47184;57.998;56.184;2023-04-21T02:21:18;11.25;;;2.92;;
61112;SDS011;47184;57.998;56.184;2023-04-21T02:23:48;10.10;;;2.92;;
61112;SDS011;47184;57.998;56.184;2023-04-21T02:26:14;45.33;;;5.50;;
61112;SDS011;47184;57.998;56.184;2023-04-21T02:28:40;37.75;;;4.55;;
61112;SDS011;47184;57.998;56.184;2023-04-21T02:31:06;49.10;;;5.32;;
61112;SDS011;47184;57.998;56.184;2023-04-21T02:33:33;33.20;;;4.63;;
61112;SDS011;47184;57.998;56.184;2023-04-21T02:35:59;9.57;;;2.85;;
61112;SDS011;47184;57.998;56.184;2023-04-21T02:38:25;20.70;;;4.13;;
61112;SDS011;47184;57.998;56.184;2023-04-21T02:40:51;18.20;;;3.83;;
61112;SDS011;47184;57.998;56.184;2023-04-21T02:43:18;43.25;;;4.80;;
61112;SDS011;47184;57.998;56.184;2023-04-21T02:45:45;18.05;;;2.92;;
61112;SDS011;47184;57.998;56.184;2023-04-21T02:48:12;25.05;;;3.92;;
61112;SDS011;47184;57.998;56.184;2023-04-21T02:50:38;16.05;;;3.47;;
61112;SDS011;47184;57.998;56.184;2023-04-21T02:53:05;19.20;;;2.70;;
61112;SDS011;47184;57.998;56.184;2023-04-21T02:55:32;18.67;;;2.88;;
61112;SDS011;47184;57.998;56.184;2023-04-21T02:57:58;5.25;;;2.38;;
61112;SDS011;47184;57.998;56.184;2023-04-21T03:00:24;23.00;;;2.38;;
61112;SDS011;47184;57.998;56.184;2023-04-21T03:02:51;17.98;;;2.88;;
61112;SDS011;47184;57.998;56.184;2023-04-21T03:05:18;18.48;;;3.63;;
61112;SDS011;47184;57.998;56.184;2023-04-21T03:07:44;12.70;;;2.45;;
61112;SDS011;47184;57.998;56.184;2023-04-21T03:10:11;8.93;;;3.38;;
61112;SDS011;47184;57.998;56.184;2023-04-21T03:12:38;18.20;;;3.55;;
61112;SDS011;47184;57.998;56.184;2023-04-21T03:15:04;14.68;;;3.00;;
61112;SDS011;47184;57.998;56.184;2023-04-21T03:17:33;13.43;;;2.67;;
61112;SDS011;47184;57.998;56.184;2023-04-21T03:20:00;13.35;;;3.55;;
61112;SDS011;47184;57.998;56.184;2023-04-21T03:22:29;21.27;;;3.55;;
61112;SDS011;47184;57.998;56.184;2023-04-21T03:24:56;35.55;;;3.53;;
61112;SDS011;47184;57.998;56.184;2023-04-21T03:27:22;2.92;;;1.63;;
61112;SDS011;47184;57.998;56.184;2023-04-21T03:29:48;15.43;;;2.78;;
61112;SDS011;47184;57.998;56.184;2023-04-21T03:32:15;12.13;;;3.55;;
61112;SDS011;47184;57.998;56.184;2023-04-21T03:34:41;19.73;;;3.85;;
61112;SDS011;47184;57.998;56.184;2023-04-21T03:37:07;4.68;;;2.13;;
61112;SDS011;47184;57.998;56.184;2023-04-21T03:39:34;4.63;;;2.42;;
61112;SDS011;47184;57.998;56.184;2023-04-21T03:42:00;6.88;;;2.63;;
61112;SDS011;47184;57.998;56.184;2023-04-21T03:44:28;11.05;;;2.97;;
61112;SDS011;47184;57.998;56.184;2023-04-21T03:46:54;15.45;;;2.75;;
61112;SDS011;47184;57.998;56.184;2023-04-21T03:49:22;10.20;;;2.83;;
61112;SDS011;47184;57.998;56.184;2023-04-21T03:51:48;17.90;;;2.90;;
61112;SDS011;47184;57.998;56.184;2023-04-21T03:54:14;9.38;;;2.70;;
61112;SDS011;47184;57.998;56.184;2023-04-21T03:56:41;6.30;;;2.45;;
61112;SDS011;47184;57.998;56.184;2023-04-21T03:59:07;10.88;;;2.30;;
61112;SDS011;47184;57.998;56.184;2023-04-21T04:01:33;8.52;;;2.50;;
61112;SDS011;47184;57.998;56.184;2023-04-21T04:03:59;6.57;;;2.55;;
61112;SDS011;47184;57.998;56.184;2023-04-21T04:06:26;10.73;;;2.53;;
61112;SDS011;47184;57.998;56.184;2023-04-21T04:08:53;11.43;;;3.15;;
61112;SDS011;47184;57.998;56.184;2023-04-21T04:11:19;8.90;;;1.98;;
61112;SDS011;47184;57.998;56.184;2023-04-21T04:13:45;17.75;;;3.15;;
61112;SDS011;47184;57.998;56.184;2023-04-21T04:16:11;9.63;;;2.97;;
61112;SDS011;47184;57.998;56.184;2023-04-21T04:18:37;10.18;;;3.20;;
61112;SDS011;47184;57.998;56.184;2023-04-21T04:21:07;17.55;;;3.60;;
61112;SDS011;47184;57.998;56.184;2023-04-21T04:23:33;23.83;;;4.55;;
61112;SDS011;47184;57.998;56.184;2023-04-21T04:25:59;17.70;;;3.70;;
61112;SDS011;47184;57.998;56.184;2023-04-21T04:28:26;14.20;;;4.32;;
61112;SDS011;47184;57.998;56.184;2023-04-21T04:30:53;21.05;;;3.78;;
61112;SDS011;47184;57.998;56.184;2023-04-21T04:33:20;30.70;;;5.15;;
61112;SDS011;47184;57.998;56.184;2023-04-21T04:35:46;36.67;;;5.13;;
61112;SDS011;47184;57.998;56.184;2023-04-21T04:38:12;79.85;;;10.27;;
61112;SDS011;47184;57.998;56.184;2023-04-21T04:40:41;17.15;;;4.38;;
61112;SDS011;47184;57.998;56.184;2023-04-21T04:43:08;18.33;;;3.88;;
61112;SDS011;47184;57.998;56.184;2023-04-21T04:45:35;11.55;;;2.40;;
61112;SDS011;47184;57.998;56.184;2023-04-21T04:48:03;8.20;;;2.65;;
61112;SDS011;47184;57.998;56.184;2023-04-21T04:50:30;74.55;;;4.97;;
61112;SDS011;47184;57.998;56.184;2023-04-21T04:52:56;21.50;;;2.55;;
61112;SDS011;47184;57.998;56.184;2023-04-21T04:55:22;14.55;;;3.10;;
61112;SDS011;47184;57.998;56.184;2023-04-21T04:57:48;3.35;;;1.60;;
61112;SDS011;47184;57.998;56.184;2023-04-21T05:00:14;23.42;;;3.25;;
61112;SDS011;47184;57.998;56.184;2023-04-21T05:02:41;3.75;;;1.27;;
61112;SDS011;47184;57.998;56.184;2023-04-21T05:05:07;9.25;;;2.15;;
61112;SDS011;47184;57.998;56.184;2023-04-21T05:07:33;10.23;;;2.63;;
61112;SDS011;47184;57.998;56.184;2023-04-21T05:09:59;4.18;;;2.03;;
61112;SDS011;47184;57.998;56.184;2023-04-21T05:12:30;4.15;;;2.20;;
61112;SDS011;47184;57.998;56.184;2023-04-21T05:14:59;16.98;;;2.70;;
61112;SDS011;47184;57.998;56.184;2023-04-21T05:17:25;17.48;;;3.25;;
61112;SDS011;47184;57.998;56.184;2023-04-21T05:19:53;13.50;;;2.72;;
61112;SDS011;47184;57.998;56.184;2023-04-21T05:22:19;2.72;;;1.05;;
61112;SDS011;47184;57.998;56.184;2023-04-21T05:24:45;5.35;;;1.80;;
61112;SDS011;47184;57.998;56.184;2023-04-21T05:27:11;6.88;;;1.25;;
61112;SDS011;47184;57.998;56.184;2023-04-21T05:29:37;3.65;;;1.90;;
61112;SDS011;47184;57.998;56.184;2023-04-21T05:32:03;5.10;;;2.00;;
61112;SDS011;47184;57.998;56.184;2023-04-21T05:34:30;4.35;;;1.92;;
61112;SDS011;47184;57.998;56.184;2023-04-21T05:36:56;2.22;;;1.02;;
61112;SDS011;47184;57.998;56.184;2023-04-21T05:39:22;4.30;;;1.55;;
61112;SDS011;47184;57.998;56.184;2023-04-21T05:41:48;9.68;;;2.60;;
61112;SDS011;47184;57.998;56.184;2023-04-21T05:44:17;7.63;;;2.78;;
61112;SDS011;47184;57.998;56.184;2023-04-21T05:46:43;17.05;;;2.80;;
61112;SDS011;47184;57.998;56.184;2023-04-21T05:49:09;11.38;;;2.58;;
61112;SDS011;47184;57.998;56.184;2023-04-21T05:51:35;16.60;;;4.55;;
61112;SDS011;47184;57.998;56.184;2023-04-21T05:54:02;3.67;;;1.98;;
61112;SDS011;47184;57.998;56.184;2023-04-21T05:56:28;8.00;;;3.03;;
61112;SDS011;47184;57.998;56.184;2023-04-21T05:58:54;14.20;;;4.63;;
61112;SDS011;47184;57.998;56.184;2023-04-21T06:01:20;37.10;;;4.93;;
61112;SDS011;47184;57.998;56.184;2023-04-21T06:03:46;28.90;;;6.82;;
61112;SDS011;47184;57.998;56.184;2023-04-21T06:06:16;21.17;;;5.05;;
61112;SDS011;47184;57.998;56.184;2023-04-21T06:08:42;6.25;;;2.58;;
61112;SDS011;47184;57.998;56.184;2023-04-21T06:11:08;9.18;;;2.80;;
61112;SDS011;47184;57.998;56.184;2023-04-21T06:13:34;4.20;;;2.58;;
61112;SDS011;47184;57.998;56.184;2023-04-21T06:16:00;18.95;;;2.92;;
61112;SDS011;47184;57.998;56.184;2023-04-21T06:18:26;2.85;;;1.20;;
61112;SDS011;47184;57.998;56.184;2023-04-21T06:20:53;3.33;;;1.70;;
61112;SDS011;47184;57.998;56.184;2023-04-21T06:23:20;3.78;;;1.30;;
61112;SDS011;47184;57.998;56.184;2023-04-21T06:25:46;3.40;;;1.17;;
61112;SDS011;47184;57.998;56.184;2023-04-21T06:28:24;2.35;;;1.10;;
61112;SDS011;47184;57.998;56.184;2023-04-21T06:30:50;7.40;;;1.88;;
61112;SDS011;47184;57.998;56.184;2023-04-21T06:33:16;6.47;;;2.25;;
61112;SDS011;47184;57.998;56.184;2023-04-21T06:35:43;2.53;;;1.23;;
61112;SDS011;47184;57.998;56.184;2023-04-21T06:38:09;2.97;;;1.20;;
61112;SDS011;47184;57.998;56.184;2023-04-21T06:40:35;1.67;;;1.05;;
61112;SDS011;47184;57.998;56.184;2023-04-21T06:43:01;2.85;;;1.23;;
61112;SDS011;47184;57.998;56.184;2023-04-21T06:45:27;6.00;;;2.17;;
61112;SDS011;47184;57.998;56.184;2023-04-21T06:47:54;5.55;;;1.95;;
61112;SDS011;47184;57.998;56.184;2023-04-21T06:50:21;43.85;;;3.90;;
61112;SDS011;47184;57.998;56.184;2023-04-21T06:52:47;10.90;;;2.53;;
61112;SDS011;47184;57.998;56.184;2023-04-21T06:55:13;6.55;;;1.70;;
61112;SDS011;47184;57.998;56.184;2023-04-21T06:57:39;6.88;;;1.58;;
61112;SDS011;47184;57.998;56.184;2023-04-21T07:00:05;6.28;;;1.88;;
61112;SDS011;47184;57.998;56.184;2023-04-21T07:02:33;2.97;;;1.30;;
61112;SDS011;47184;57.998;56.184;2023-04-21T07:04:59;6.95;;;1.48;;
61112;SDS011;47184;57.998;56.184;2023-04-21T07:07:25;9.50;;;2.05;;
61112;SDS011;47184;57.998;56.184;2023-04-21T07:09:51;6.30;;;1.52;;
61112;SDS011;47184;57.998;56.184;2023-04-21T07:12:17;10.48;;;2.10;;
61112;SDS011;47184;57.998;56.184;2023-04-21T07:14:43;16.20;;;3.28;;
61112;SDS011;47184;57.998;56.184;2023-04-21T07:17:09;5.30;;;2.60;;
61112;SDS011;47184;57.998;56.184;2023-04-21T07:19:35;10.93;;;2.10;;
61112;SDS011;47184;57.998;56.184;2023-04-21T07:22:01;1.95;;;1.30;;
61112;SDS011;47184;57.998;56.184;2023-04-21T07:24:27;9.13;;;2.47;;
61112;SDS011;47184;57.998;56.184;2023-04-21T07:26:53;4.10;;;2.00;;
61112;SDS011;47184;57.998;56.184;2023-04-21T07:29:19;14.27;;;3.30;;
61112;SDS011;47184;57.998;56.184;2023-04-21T07:31:46;11.05;;;2.95;;
61112;SDS011;47184;57.998;56.184;2023-04-21T07:34:13;3.50;;;1.80;;
61112;SDS011;47184;57.998;56.184;2023-04-21T07:36:39;2.42;;;1.48;;
61112;SDS011;47184;57.998;56.184;2023-04-21T07:39:05;6.75;;;1.90;;
61112;SDS011;47184;57.998;56.184;2023-04-21T07:41:32;10.60;;;2.05;;
61112;SDS011;47184;57.998;56.184;2023-04-21T07:43:58;12.05;;;2.75;;
61112;SDS011;47184;57.998;56.184;2023-04-21T07:46:24;5.20;;;1.63;;
61112;SDS011;47184;57.998;56.184;2023-04-21T07:48:57;7.25;;;2.33;;
61112;SDS011;47184;57.998;56.184;2023-04-21T07:51:24;3.92;;;1.77;;
61112;SDS011;47184;57.998;56.184;2023-04-21T07:53:54;7.97;;;1.35;;
61112;SDS011;47184;57.998;56.184;2023-04-21T07:56:20;5.68;;;1.92;;
61112;SDS011;47184;57.998;56.184;2023-04-21T07:58:46;4.13;;;2.13;;
61112;SDS011;47184;57.998;56.184;2023-04-21T08:01:12;4.75;;;1.48;;
61112;SDS011;47184;57.998;56.184;2023-04-21T08:03:38;4.30;;;1.80;;
61112;SDS011;47184;57.998;56.184;2023-04-21T08:06:05;14.13;;;2.40;;
61112;SDS011;47184;57.998;56.184;2023-04-21T08:08:32;6.90;;;1.70;;
61112;SDS011;47184;57.998;56.184;2023-04-21T08:10:58;7.57;;;1.85;;
61112;SDS011;47184;57.998;56.184;2023-04-21T08:13:24;6.80;;;2.50;;
61112;SDS011;47184;57.998;56.184;2023-04-21T08:15:51;9.45;;;1.88;;
61112;SDS011;47184;57.998;56.184;2023-04-21T08:18:17;10.27;;;2.20;;
61112;SDS011;47184;57.998;56.184;2023-04-21T08:20:44;17.38;;;3.00;;
61112;SDS011;47184;57.998;56.184;2023-04-21T08:23:13;6.65;;;2.13;;
61112;SDS011;47184;57.998;56.184;2023-04-21T08:25:39;13.52;;;3.05;;
61112;SDS011;47184;57.998;56.184;2023-04-21T08:28:06;7.82;;;2.13;;
61112;SDS011;47184;57.998;56.184;2023-04-21T08:30:32;9.48;;;2.30;;
61112;SDS011;47184;57.998;56.184;2023-04-21T08:32:58;11.60;;;2.42;;
61112;SDS011;47184;57.998;56.184;2023-04-21T08:35:24;8.05;;;2.05;;
61112;SDS011;47184;57.998;56.184;2023-04-21T08:37:50;8.20;;;1.30;;
61112;SDS011;47184;57.998;56.184;2023-04-21T08:40:19;12.02;;;1.83;;
61112;SDS011;47184;57.998;56.184;2023-04-21T08:42:45;4.88;;;1.77;;
61112;SDS011;47184;57.998;56.184;2023-04-21T08:45:12;3.90;;;1.90;;
61112;SDS011;47184;57.998;56.184;2023-04-21T08:47:39;2.22;;;1.25;;
61112;SDS011;47184;57.998;56.184;2023-04-21T08:50:06;8.77;;;1.23;;
61112;SDS011;47184;57.998;56.184;2023-04-21T08:52:38;2.20;;;1.27;;
61112;SDS011;47184;57.998;56.184;2023-04-21T08:55:04;4.75;;;1.85;;
61112;SDS011;47184;57.998;56.184;2023-04-21T08:57:32;2.80;;;1.20;;
61112;SDS011;47184;57.998;56.184;2023-04-21T08:59:58;9.88;;;1.58;;
61112;SDS011;47184;57.998;56.184;2023-04-21T09:02:24;11.70;;;1.38;;
61112;SDS011;47184;57.998;56.184;2023-04-21T09:04:50;16.45;;;1.10;;
61112;SDS011;47184;57.998;56.184;2023-04-21T09:07:35;17.55;;;2.03;;
61112;SDS011;47184;57.998;56.184;2023-04-21T09:10:04;11.20;;;2.65;;
61112;SDS011;47184;57.998;56.184;2023-04-21T09:12:32;11.05;;;3.08;;
61112;SDS011;47184;57.998;56.184;2023-04-21T09:14:58;5.63;;;1.75;;
61112;SDS011;47184;57.998;56.184;2023-04-21T09:17:30;2.95;;;1.70;;
61112;SDS011;47184;57.998;56.184;2023-04-21T09:20:12;8.63;;;3.28;;
61112;SDS011;47184;57.998;56.184;2023-04-21T09:22:40;2.67;;;0.90;;
61112;SDS011;47184;57.998;56.184;2023-04-21T09:25:06;5.10;;;2.38;;
61112;SDS011;47184;57.998;56.184;2023-04-21T09:27:36;2.33;;;1.15;;
61112;SDS011;47184;57.998;56.184;2023-04-21T09:30:03;4.32;;;2.38;;
61112;SDS011;47184;57.998;56.184;2023-04-21T09:32:35;4.53;;;2.38;;
61112;SDS011;47184;57.998;56.184;2023-04-21T09:35:08;7.07;;;2.45;;
61112;SDS011;47184;57.998;56.184;2023-04-21T09:37:35;8.73;;;2.05;;
61112;SDS011;47184;57.998;56.184;2023-04-21T09:40:02;9.18;;;2.90;;
61112;SDS011;47184;57.998;56.184;2023-04-21T09:42:33;0.70;;;0.57;;
61112;SDS011;47184;57.998;56.184;2023-04-21T09:45:00;4.60;;;2.05;;
61112;SDS011;47184;57.998;56.184;2023-04-21T09:47:29;1.33;;;0.63;;
61112;SDS011;47184;57.998;56.184;2023-04-21T09:50:02;8.73;;;3.22;;
61112;SDS011;47184;57.998;56.184;2023-04-21T09:52:31;4.32;;;1.48;;
61112;SDS011;47184;57.998;56.184;2023-04-21T09:55:01;2.17;;;0.75;;
61112;SDS011;47184;57.998;56.184;2023-04-21T09:57:30;4.82;;;1.65;;
61112;SDS011;47184;57.998;56.184;2023-04-21T10:00:01;2.60;;;1.35;;
61112;SDS011;47184;57.998;56.184;2023-04-21T10:02:32;5.47;;;1.90;;
61112;SDS011;47184;57.998;56.184;2023-04-21T10:05:00;2.38;;;1.52;;
61112;SDS011;47184;57.998;56.184;2023-04-21T10:07:27;3.80;;;1.77;;
61112;SDS011;47184;57.998;56.184;2023-04-21T10:09:54;5.00;;;2.90;;
61112;SDS011;47184;57.998;56.184;2023-04-21T10:12:23;7.05;;;1.67;;
61112;SDS011;47184;57.998;56.184;2023-04-21T10:14:51;9.60;;;2.40;;
61112;SDS011;47184;57.998;56.184;2023-04-21T10:17:21;6.28;;;2.90;;
61112;SDS011;47184;57.998;56.184;2023-04-21T10:19:52;5.60;;;2.00;;
61112;SDS011;47184;57.998;56.184;2023-04-21T10:22:25;9.00;;;2.90;;
61112;SDS011;47184;57.998;56.184;2023-04-21T10:24:56;6.50;;;3.20;;
61112;SDS011;47184;57.998;56.184;2023-04-21T10:30:19;24.00;;;3.72;;
61112;SDS011;47184;57.998;56.184;2023-04-21T10:32:47;26.15;;;5.15;;
61112;SDS011;47184;57.998;56.184;2023-04-21T10:35:36;16.92;;;4.15;;
61112;SDS011;47184;57.998;56.184;2023-04-21T10:38:32;10.90;;;1.98;;
61112;SDS011;47184;57.998;56.184;2023-04-21T10:43:51;5.20;;;1.30;;
61112;SDS011;47184;57.998;56.184;2023-04-21T10:49:04;2.10;;;1.27;;
61112;SDS011;47184;57.998;56.184;2023-04-21T10:54:26;8.40;;;3.42;;
61112;SDS011;47184;57.998;56.184;2023-04-21T10:56:55;16.40;;;3.28;;
61112;SDS011;47184;57.998;56.184;2023-04-21T10:59:23;5.07;;;3.10;;
61112;SDS011;47184;57.998;56.184;2023-04-21T11:01:50;15.13;;;5.55;;
61112;SDS011;47184;57.998;56.184;2023-04-21T11:04:17;18.05;;;8.18;;
61112;SDS011;47184;57.998;56.184;2023-04-21T11:07:04;15.95;;;9.93;;
61112;SDS011;47184;57.998;56.184;2023-04-21T11:09:34;12.63;;;6.32;;
61112;SDS011;47184;57.998;56.184;2023-04-21T11:12:02;7.90;;;2.65;;
61112;SDS011;47184;57.998;56.184;2023-04-21T11:14:35;10.98;;;3.67;;
61112;SDS011;47184;57.998;56.184;2023-04-21T11:17:03;5.55;;;3.28;;
61112;SDS011;47184;57.998;56.184;2023-04-21T11:19:30;6.15;;;2.45;;
61112;SDS011;47184;57.998;56.184;2023-04-21T11:21:56;4.38;;;2.63;;
61112;SDS011;47184;57.998;56.184;2023-04-21T11:24:23;4.55;;;1.98;;
61112;SDS011;47184;57.998;56.184;2023-04-21T11:26:50;11.23;;;3.17;;
61112;SDS011;47184;57.998;56.184;2023-04-21T11:29:16;7.50;;;3.50;;
61112;SDS011;47184;57.998;56.184;2023-04-21T11:31:43;7.82;;;3.30;;
61112;SDS011;47184;57.998;56.184;2023-04-21T11:34:12;13.70;;;3.60;;
61112;SDS011;47184;57.998;56.184;2023-04-21T11:36:40;9.23;;;4.40;;
61112;SDS011;47184;57.998;56.184;2023-04-21T11:39:09;8.73;;;3.28;;
61112;SDS011;47184;57.998;56.184;2023-04-21T11:41:38;10.25;;;3.15;;
61112;SDS011;47184;57.998;56.184;2023-04-21T11:44:06;10.20;;;3.67;;
61112;SDS011;47184;57.998;56.184;2023-04-21T11:46:33;15.23;;;4.35;;
61112;SDS011;47184;57.998;56.184;2023-04-21T11:51:39;14.93;;;4.25;;
61112;SDS011;47184;57.998;56.184;2023-04-21T11:54:07;9.80;;;3.58;;
61112;SDS011;47184;57.998;56.184;2023-04-21T11:56:42;12.27;;;4.60;;
61112;SDS011;47184;57.998;56.184;2023-04-21T11:59:12;4.80;;;2.65;;
61112;SDS011;47184;57.998;56.184;2023-04-21T12:01:46;5.15;;;2.80;;
61112;SDS011;47184;57.998;56.184;2023-04-21T12:06:55;7.25;;;3.70;;
61112;SDS011;47184;57.998;56.184;2023-04-21T12:09:25;6.93;;;2.78;;
61112;SDS011;47184;57.998;56.184;2023-04-21T12:11:53;9.00;;;3.53;;
61112;SDS011;47184;57.998;56.184;2023-04-21T12:14:21;18.13;;;10.18;;
61112;SDS011;47184;57.998;56.184;2023-04-21T12:16:49;5.53;;;3.60;;
61112;SDS011;47184;57.998;56.184;2023-04-21T12:19:21;7.32;;;3.05;;
61112;SDS011;47184;57.998;56.184;2023-04-21T12:21:58;6.72;;;2.75;;
61112;SDS011;47184;57.998;56.184;2023-04-21T12:24:25;4.82;;;2.40;;
61112;SDS011;47184;57.998;56.184;2023-04-21T12:26:51;4.75;;;2.42;;
61112;SDS011;47184;57.998;56.184;2023-04-21T12:29:17;10.60;;;2.90;;
61112;SDS011;47184;57.998;56.184;2023-04-21T12:31:43;14.02;;;3.70;;
61112;SDS011;47184;57.998;56.184;2023-04-21T12:34:09;10.98;;;3.70;;
61112;SDS011;47184;57.998;56.184;2023-04-21T12:36:35;10.45;;;4.18;;
61112;SDS011;47184;57.998;56.184;2023-04-21T12:39:03;14.05;;;5.22;;
61112;SDS011;47184;57.998;56.184;2023-04-21T12:41:30;12.75;;;6.15;;
61112;SDS011;47184;57.998;56.184;2023-04-21T12:43:56;17.50;;;6.07;;
61112;SDS011;47184;57.998;56.184;2023-04-21T12:46:22;12.77;;;5.97;;
61112;SDS011;47184;57.998;56.184;2023-04-21T12:48:49;9.10;;;4.32;;
61112;SDS011;47184;57.998;56.184;2023-04-21T12:51:16;8.18;;;4.53;;
61112;SDS011;47184;57.998;56.184;2023-04-21T12:53:43;9.50;;;4.90;;
61112;SDS011;47184;57.998;56.184;2023-04-21T12:56:09;5.90;;;3.50;;
61112;SDS011;47184;57.998;56.184;2023-04-21T12:58:35;7.13;;;3.72;;
61112;SDS011;47184;57.998;56.184;2023-04-21T13:01:02;10.13;;;3.20;;
61112;SDS011;47184;57.998;56.184;2023-04-21T13:03:28;10.50;;;3.70;;
61112;SDS011;47184;57.998;56.184;2023-04-21T13:05:54;5.72;;;3.35;;
61112;SDS011;47184;57.998;56.184;2023-04-21T13:08:20;7.00;;;3.85;;
61112;SDS011;47184;57.998;56.184;2023-04-21T13:10:46;7.03;;;3.30;;
61112;SDS011;47184;57.998;56.184;2023-04-21T13:13:12;7.60;;;3.03;;
61112;SDS011;47184;57.998;56.184;2023-04-21T13:15:38;8.52;;;3.75;;
61112;SDS011;47184;57.998;56.184;2023-04-21T13:18:04;6.40;;;3.78;;
61112;SDS011;47184;57.998;56.184;2023-04-21T13:20:31;8.60;;;3.50;;
61112;SDS011;47184;57.998;56.184;2023-04-21T13:22:57;11.35;;;4.20;;
61112;SDS011;47184;57.998;56.184;2023-04-21T13:25:23;7.22;;;3.67;;
61112;SDS011;47184;57.998;56.184;2023-04-21T13:27:51;18.45;;;4.70;;
61112;SDS011;47184;57.998;56.184;2023-04-21T13:30:17;14.82;;;4.18;;
61112;SDS011;47184;57.998;56.184;2023-04-21T13:32:43;12.27;;;5.00;;
61112;SDS011;47184;57.998;56.184;2023-04-21T13:35:10;11.80;;;5.07;;
61112;SDS011;47184;57.998;56.184;2023-04-21T13:37:39;18.70;;;5.43;;
61112;SDS011;47184;57.998;56.184;2023-04-21T13:40:06;21.38;;;5.68;;
61112;SDS011;47184;57.998;56.184;2023-04-21T13:42:35;20.60;;;6.57;;
61112;SDS011;47184;57.998;56.184;2023-04-21T13:45:02;13.77;;;6.13;;
61112;SDS011;47184;57.998;56.184;2023-04-21T13:47:31;24.13;;;6.03;;
61112;SDS011;47184;57.998;56.184;2023-04-21T13:49:58;18.05;;;5.70;;
61112;SDS011;47184;57.998;56.184;2023-04-21T13:52:25;24.95;;;7.13;;
61112;SDS011;47184;57.998;56.184;2023-04-21T13:54:52;37.53;;;7.78;;
61112;SDS011;47184;57.998;56.184;2023-04-21T13:57:19;23.42;;;7.88;;
61112;SDS011;47184;57.998;56.184;2023-04-21T13:59:46;20.02;;;8.70;;
61112;SDS011;47184;57.998;56.184;2023-04-21T14:02:12;14.90;;;7.47;;
61112;SDS011;47184;57.998;56.184;2023-04-21T14:04:38;20.75;;;6.70;;
61112;SDS011;47184;57.998;56.184;2023-04-21T14:07:05;21.42;;;6.60;;
61112;SDS011;47184;57.998;56.184;2023-04-21T14:09:32;19.02;;;6.78;;
61112;SDS011;47184;57.998;56.184;2023-04-21T14:11:59;15.63;;;7.55;;
61112;SDS011;47184;57.998;56.184;2023-04-21T14:14:26;20.15;;;7.95;;
61112;SDS011;47184;57.998;56.184;2023-04-21T14:16:52;22.98;;;8.32;;
61112;SDS011;47184;57.998;56.184;2023-04-21T14:19:18;23.20;;;8.98;;
61112;SDS011;47184;57.998;56.184;2023-04-21T14:21:45;17.08;;;7.65;;
61112;SDS011;47184;57.998;56.184;2023-04-21T14:24:11;11.85;;;5.78;;
61112;SDS011;47184;57.998;56.184;2023-04-21T14:26:37;21.27;;;6.40;;
61112;SDS011;47184;57.998;56.184;2023-04-21T14:29:03;21.50;;;6.70;;
61112;SDS011;47184;57.998;56.184;2023-04-21T14:31:30;17.92;;;6.78;;
61112;SDS011;47184;57.998;56.184;2023-04-21T14:33:56;18.10;;;6.57;;
61112;SDS011;47184;57.998;56.184;2023-04-21T14:36:22;11.75;;;4.95;;
61112;SDS011;47184;57.998;56.184;2023-04-21T14:38:48;12.45;;;5.70;;
61112;SDS011;47184;57.998;56.184;2023-04-21T14:41:14;8.63;;;3.97;;
61112;SDS011;47184;57.998;56.184;2023-04-21T14:43:40;5.43;;;1.52;;
61112;SDS011;47184;57.998;56.184;2023-04-21T14:46:06;1.83;;;1.17;;
61112;SDS011;47184;57.998;56.184;2023-04-21T14:48:33;2.58;;;1.25;;